Aktuální počasí v Česku a ve světě - METAR

Seznam meteostanic umístěných nejčasteji na letišti v ČR a ve světě

Vyhledat místa podle abecedy:
A B C D E F G H I J K L M N O P Q R S T U V W X Y Z

Filtrovat:

ID stanice:
a/nebo
Název místa (fulltext):
 
Místo (ID)Naposledy načteno 
Holešov (Holesov) 05.03.2021 06:00 UTC Zobrazit data
Místo: Holešov
Teplota: 1 °C (pocitová: -9.5 °C)
Vítr: 8 m/s z(e) 30°
Počasí: déšť
Dohlednost: 8 km
Zákl. oblačnosti: 3/8 240 m;8/8 1140 m
Vlhkost: 93%
Hamburg (EDDH) 05.03.2021 05:50 UTC Zobrazit METAR
EDDH 050550Z 31004KT CAVOK M05/M06 Q1025 NOSIG
Hannover (EDDV) 05.03.2021 05:50 UTC Zobrazit METAR
EDDV 050550Z 30003KT 9999 FEW036 M03/M04 Q1025 NOSIG
Hanoi (VVNB) 05.03.2021 06:00 UTC Zobrazit METAR
VVNB 050600Z 09003KT 060V160 1700 BR SCT003 OVC005 20/18 Q1012 NOSIG
Harare (FVHA) 13.09.2018 03:00 UTC Zobrazit METAR
FVHA 130300Z 07008KT CAVOK 14/07 Q1022 NOSIG
Havana (MUHA) 05.03.2021 05:55 UTC Zobrazit METAR
MUHA 050555Z 36005KT 9000 FEW030 19/13 Q1015
Helsinki (EFHK) 05.03.2021 05:50 UTC Zobrazit METAR
EFHK 050550Z 30006KT CAVOK M09/M12 Q1012 NOSIG
Hong Kong (VHHH) 05.03.2021 06:00 UTC Zobrazit METAR
VHHH 050600Z 09013KT 9999 FEW012 SCT018 22/19 Q1014 NOSIG
Honiara (AGGH) 05.03.2021 05:00 UTC Zobrazit METAR
AGGH 050500Z 34003KT 9999 SCT018 SCT110 30/25 Q1006
Horta (LPHR) 04.03.2021 21:00 UTC Zobrazit METAR
LPHR 042100Z 01003KT 330V090 9999 FEW017 13/08 Q1027
Reklama

Reklama


Počasí na Váš email

Emaily jsou bez reklamy a bez spamu



Odhlásit newsletter



Další české internetové stránky (nejen) o počasí najdete v katalogu TOPlist - weby o počasí nebo vyhledejte na internetu, co jste tu na 🌞 Slunečnu ⛅ zatím nenašli:
⭐ Přidat Slunečno.cz do oblíbených | 🏠 Nastavit Slunečno.cz jako HOMEPAGE

⬆️ Posunout stránku nahoru ⬆️
Reklama